sensor_id;sensor_type;location;lat;lon;timestamp;temperature;humidity
5164;DHT22;2601;50.224;10.126;2023-05-10T00:00:13;18.00;96.30
5164;DHT22;2601;50.224;10.126;2023-05-10T00:02:39;18.00;96.40
5164;DHT22;2601;50.224;10.126;2023-05-10T00:05:05;18.00;96.40
5164;DHT22;2601;50.224;10.126;2023-05-10T00:07:30;18.00;96.50
5164;DHT22;2601;50.224;10.126;2023-05-10T00:09:56;18.00;96.50
5164;DHT22;2601;50.224;10.126;2023-05-10T00:12:22;18.00;96.60
5164;DHT22;2601;50.224;10.126;2023-05-10T00:14:47;18.00;96.60
5164;DHT22;2601;50.224;10.126;2023-05-10T00:17:13;18.00;96.70
5164;DHT22;2601;50.224;10.126;2023-05-10T00:19:38;18.00;96.60
5164;DHT22;2601;50.224;10.126;2023-05-10T00:22:04;18.00;96.60
5164;DHT22;2601;50.224;10.126;2023-05-10T00:24:30;18.00;96.80
5164;DHT22;2601;50.224;10.126;2023-05-10T00:26:55;18.00;96.90
5164;DHT22;2601;50.224;10.126;2023-05-10T00:29:21;18.00;96.90
5164;DHT22;2601;50.224;10.126;2023-05-10T00:31:46;18.00;97.00
5164;DHT22;2601;50.224;10.126;2023-05-10T00:34:12;18.00;97.10
5164;DHT22;2601;50.224;10.126;2023-05-10T00:36:37;18.00;97.10
5164;DHT22;2601;50.224;10.126;2023-05-10T00:39:03;18.00;97.20
5164;DHT22;2601;50.224;10.126;2023-05-10T00:41:29;18.00;97.20
5164;DHT22;2601;50.224;10.126;2023-05-10T00:43:58;18.00;97.30
5164;DHT22;2601;50.224;10.126;2023-05-10T00:46:24;18.00;97.30
5164;DHT22;2601;50.224;10.126;2023-05-10T00:48:50;18.00;97.30
5164;DHT22;2601;50.224;10.126;2023-05-10T00:51:15;18.00;97.50
5164;DHT22;2601;50.224;10.126;2023-05-10T00:53:41;18.00;97.50
5164;DHT22;2601;50.224;10.126;2023-05-10T00:56:08;18.00;97.80
5164;DHT22;2601;50.224;10.126;2023-05-10T00:58:33;18.00;97.90
5164;DHT22;2601;50.224;10.126;2023-05-10T01:01:00;18.00;97.90
5164;DHT22;2601;50.224;10.126;2023-05-10T01:03:25;18.00;97.90
5164;DHT22;2601;50.224;10.126;2023-05-10T01:05:51;18.00;97.90
5164;DHT22;2601;50.224;10.126;2023-05-10T01:08:17;18.00;98.20
5164;DHT22;2601;50.224;10.126;2023-05-10T01:10:43;18.00;98.10
5164;DHT22;2601;50.224;10.126;2023-05-10T01:13:09;18.00;98.00
5164;DHT22;2601;50.224;10.126;2023-05-10T01:15:36;18.00;98.30
5164;DHT22;2601;50.224;10.126;2023-05-10T01:18:02;18.00;98.30
5164;DHT22;2601;50.224;10.126;2023-05-10T01:20:35;18.00;98.10
5164;DHT22;2601;50.224;10.126;2023-05-10T01:23:24;18.00;98.30
5164;DHT22;2601;50.224;10.126;2023-05-10T01:29:37;18.00;98.20
5164;DHT22;2601;50.224;10.126;2023-05-10T01:32:11;18.00;98.30
5164;DHT22;2601;50.224;10.126;2023-05-10T01:44:10;18.00;99.20
5164;DHT22;2601;50.224;10.126;2023-05-10T01:46:38;18.00;99.30
5164;DHT22;2601;50.224;10.126;2023-05-10T01:49:10;18.00;99.10
5164;DHT22;2601;50.224;10.126;2023-05-10T01:51:50;18.00;99.10
5164;DHT22;2601;50.224;10.126;2023-05-10T01:54:19;18.00;99.30
5164;DHT22;2601;50.224;10.126;2023-05-10T01:56:47;18.00;99.20
5164;DHT22;2601;50.224;10.126;2023-05-10T01:59:18;18.00;99.40
5164;DHT22;2601;50.224;10.126;2023-05-10T02:01:45;18.00;99.30
5164;DHT22;2601;50.224;10.126;2023-05-10T02:04:15;18.00;99.40
5164;DHT22;2601;50.224;10.126;2023-05-10T02:06:42;18.00;99.40
5164;DHT22;2601;50.224;10.126;2023-05-10T02:09:10;18.00;99.40
5164;DHT22;2601;50.224;10.126;2023-05-10T02:11:38;18.00;99.30
5164;DHT22;2601;50.224;10.126;2023-05-10T02:14:06;18.00;99.30
5164;DHT22;2601;50.224;10.126;2023-05-10T02:16:33;18.00;99.30
5164;DHT22;2601;50.224;10.126;2023-05-10T02:19:01;18.00;99.20
5164;DHT22;2601;50.224;10.126;2023-05-10T02:21:28;18.00;99.50
5164;DHT22;2601;50.224;10.126;2023-05-10T02:23:55;18.00;99.30
5164;DHT22;2601;50.224;10.126;2023-05-10T02:26:21;18.00;99.30
5164;DHT22;2601;50.224;10.126;2023-05-10T02:28:49;18.00;99.40
5164;DHT22;2601;50.224;10.126;2023-05-10T02:31:16;18.00;99.80
5164;DHT22;2601;50.224;10.126;2023-05-10T02:33:43;18.00;99.80
5164;DHT22;2601;50.224;10.126;2023-05-10T02:36:09;18.00;99.90
5164;DHT22;2601;50.224;10.126;2023-05-10T02:38:36;18.00;99.90
5164;DHT22;2601;50.224;10.126;2023-05-10T02:41:04;18.00;99.90
5164;DHT22;2601;50.224;10.126;2023-05-10T02:43:32;18.00;99.90
5164;DHT22;2601;50.224;10.126;2023-05-10T02:45:58;18.00;99.90
5164;DHT22;2601;50.224;10.126;2023-05-10T02:48:24;18.00;99.90
5164;DHT22;2601;50.224;10.126;2023-05-10T02:50:52;18.00;99.90
5164;DHT22;2601;50.224;10.126;2023-05-10T02:53:30;18.00;99.90
5164;DHT22;2601;50.224;10.126;2023-05-10T02:55:59;18.00;99.90
5164;DHT22;2601;50.224;10.126;2023-05-10T02:58:26;18.00;99.90
5164;DHT22;2601;50.224;10.126;2023-05-10T03:00:52;18.00;99.90
5164;DHT22;2601;50.224;10.126;2023-05-10T03:03:17;18.00;99.80
5164;DHT22;2601;50.224;10.126;2023-05-10T03:05:43;18.00;99.80
5164;DHT22;2601;50.224;10.126;2023-05-10T03:08:08;18.00;99.90
5164;DHT22;2601;50.224;10.126;2023-05-10T03:10:41;18.00;99.70
5164;DHT22;2601;50.224;10.126;2023-05-10T03:13:16;18.00;99.90
5164;DHT22;2601;50.224;10.126;2023-05-10T03:15:47;18.00;99.60
5164;DHT22;2601;50.224;10.126;2023-05-10T03:18:23;18.00;99.70
5164;DHT22;2601;50.224;10.126;2023-05-10T03:20:56;18.00;99.60
5164;DHT22;2601;50.224;10.126;2023-05-10T03:23:35;18.00;99.60
5164;DHT22;2601;50.224;10.126;2023-05-10T03:26:08;18.00;99.70
5164;DHT22;2601;50.224;10.126;2023-05-10T03:28:37;18.00;99.70
5164;DHT22;2601;50.224;10.126;2023-05-10T03:31:04;18.00;99.50
5164;DHT22;2601;50.224;10.126;2023-05-10T03:33:31;18.00;99.70
5164;DHT22;2601;50.224;10.126;2023-05-10T03:35:57;18.00;99.70
5164;DHT22;2601;50.224;10.126;2023-05-10T03:38:23;18.00;99.70
5164;DHT22;2601;50.224;10.126;2023-05-10T03:40:49;18.00;99.30
5164;DHT22;2601;50.224;10.126;2023-05-10T03:43:14;18.00;99.50
5164;DHT22;2601;50.224;10.126;2023-05-10T03:45:40;18.00;99.30
5164;DHT22;2601;50.224;10.126;2023-05-10T03:48:05;18.00;99.60
5164;DHT22;2601;50.224;10.126;2023-05-10T03:50:31;18.00;99.70
5164;DHT22;2601;50.224;10.126;2023-05-10T03:52:56;18.00;99.60
5164;DHT22;2601;50.224;10.126;2023-05-10T03:55:23;18.00;99.60
5164;DHT22;2601;50.224;10.126;2023-05-10T03:57:49;18.00;99.40
5164;DHT22;2601;50.224;10.126;2023-05-10T04:00:19;18.00;99.50
5164;DHT22;2601;50.224;10.126;2023-05-10T04:02:44;18.00;99.70
5164;DHT22;2601;50.224;10.126;2023-05-10T04:05:10;18.00;99.70
5164;DHT22;2601;50.224;10.126;2023-05-10T04:07:36;18.00;99.60
5164;DHT22;2601;50.224;10.126;2023-05-10T04:10:01;18.00;99.90
5164;DHT22;2601;50.224;10.126;2023-05-10T04:12:27;18.00;99.40
5164;DHT22;2601;50.224;10.126;2023-05-10T04:14:53;18.00;99.60
5164;DHT22;2601;50.224;10.126;2023-05-10T04:17:18;18.00;99.40
5164;DHT22;2601;50.224;10.126;2023-05-10T04:19:44;18.00;99.00
5164;DHT22;2601;50.224;10.126;2023-05-10T04:22:09;18.00;99.50
5164;DHT22;2601;50.224;10.126;2023-05-10T04:24:35;18.00;99.10
5164;DHT22;2601;50.224;10.126;2023-05-10T04:27:01;18.00;99.20
5164;DHT22;2601;50.224;10.126;2023-05-10T04:29:26;18.00;99.20
5164;DHT22;2601;50.224;10.126;2023-05-10T04:31:52;18.00;99.30
5164;DHT22;2601;50.224;10.126;2023-05-10T04:34:20;18.00;99.20
5164;DHT22;2601;50.224;10.126;2023-05-10T04:36:46;18.00;99.30
5164;DHT22;2601;50.224;10.126;2023-05-10T04:39:11;18.00;99.40
5164;DHT22;2601;50.224;10.126;2023-05-10T04:41:38;18.00;99.50
5164;DHT22;2601;50.224;10.126;2023-05-10T04:44:05;18.00;99.30
5164;DHT22;2601;50.224;10.126;2023-05-10T04:46:31;18.00;99.20
5164;DHT22;2601;50.224;10.126;2023-05-10T04:48:57;18.00;99.10
5164;DHT22;2601;50.224;10.126;2023-05-10T04:51:22;18.00;99.30
5164;DHT22;2601;50.224;10.126;2023-05-10T04:53:48;18.00;99.70
5164;DHT22;2601;50.224;10.126;2023-05-10T04:56:13;18.00;99.30
5164;DHT22;2601;50.224;10.126;2023-05-10T04:58:39;18.00;99.30
5164;DHT22;2601;50.224;10.126;2023-05-10T05:01:06;18.00;99.30
5164;DHT22;2601;50.224;10.126;2023-05-10T05:03:32;18.00;99.30
5164;DHT22;2601;50.224;10.126;2023-05-10T05:05:59;18.00;99.00
5164;DHT22;2601;50.224;10.126;2023-05-10T05:08:24;18.00;99.30
5164;DHT22;2601;50.224;10.126;2023-05-10T05:10:50;18.00;99.30
5164;DHT22;2601;50.224;10.126;2023-05-10T05:13:15;18.00;99.30
5164;DHT22;2601;50.224;10.126;2023-05-10T05:15:41;18.00;99.30
5164;DHT22;2601;50.224;10.126;2023-05-10T05:18:06;18.00;99.30
5164;DHT22;2601;50.224;10.126;2023-05-10T05:20:33;18.00;99.20
5164;DHT22;2601;50.224;10.126;2023-05-10T05:22:59;18.00;99.30
5164;DHT22;2601;50.224;10.126;2023-05-10T05:25:25;18.00;99.20
5164;DHT22;2601;50.224;10.126;2023-05-10T05:27:50;18.00;98.70
5164;DHT22;2601;50.224;10.126;2023-05-10T05:30:16;18.00;98.80
5164;DHT22;2601;50.224;10.126;2023-05-10T05:32:42;18.00;98.60
5164;DHT22;2601;50.224;10.126;2023-05-10T05:35:07;18.00;98.80
5164;DHT22;2601;50.224;10.126;2023-05-10T05:37:33;18.10;98.90
5164;DHT22;2601;50.224;10.126;2023-05-10T05:39:59;18.10;98.70
5164;DHT22;2601;50.224;10.126;2023-05-10T05:42:26;18.10;98.90
5164;DHT22;2601;50.224;10.126;2023-05-10T05:44:52;18.10;98.60
5164;DHT22;2601;50.224;10.126;2023-05-10T05:47:17;18.10;98.80
5164;DHT22;2601;50.224;10.126;2023-05-10T05:49:43;18.10;98.70
5164;DHT22;2601;50.224;10.126;2023-05-10T05:52:11;18.10;98.50
5164;DHT22;2601;50.224;10.126;2023-05-10T05:54:36;18.10;98.70
5164;DHT22;2601;50.224;10.126;2023-05-10T05:57:02;18.10;98.70
5164;DHT22;2601;50.224;10.126;2023-05-10T05:59:28;18.10;99.10
5164;DHT22;2601;50.224;10.126;2023-05-10T06:01:54;18.10;99.00
5164;DHT22;2601;50.224;10.126;2023-05-10T06:04:19;18.10;98.80
5164;DHT22;2601;50.224;10.126;2023-05-10T06:06:45;18.10;98.80
5164;DHT22;2601;50.224;10.126;2023-05-10T06:09:12;18.10;99.10
5164;DHT22;2601;50.224;10.126;2023-05-10T06:11:37;18.10;99.20
5164;DHT22;2601;50.224;10.126;2023-05-10T06:14:04;18.10;99.30
5164;DHT22;2601;50.224;10.126;2023-05-10T06:16:30;18.10;99.40
5164;DHT22;2601;50.224;10.126;2023-05-10T06:18:56;18.10;98.80
5164;DHT22;2601;50.224;10.126;2023-05-10T06:21:22;18.10;99.20
5164;DHT22;2601;50.224;10.126;2023-05-10T06:23:47;18.10;99.00
5164;DHT22;2601;50.224;10.126;2023-05-10T06:26:13;18.10;99.10
5164;DHT22;2601;50.224;10.126;2023-05-10T06:28:39;18.10;99.00
5164;DHT22;2601;50.224;10.126;2023-05-10T06:31:06;18.10;98.80
5164;DHT22;2601;50.224;10.126;2023-05-10T06:33:32;18.10;98.90
5164;DHT22;2601;50.224;10.126;2023-05-10T06:35:58;18.10;99.20
5164;DHT22;2601;50.224;10.126;2023-05-10T06:38:23;18.10;98.80
5164;DHT22;2601;50.224;10.126;2023-05-10T06:40:49;18.10;98.70
5164;DHT22;2601;50.224;10.126;2023-05-10T06:43:15;18.10;99.20
5164;DHT22;2601;50.224;10.126;2023-05-10T06:45:40;18.10;98.70
5164;DHT22;2601;50.224;10.126;2023-05-10T06:48:06;18.10;99.10
5164;DHT22;2601;50.224;10.126;2023-05-10T06:50:32;18.10;98.50
5164;DHT22;2601;50.224;10.126;2023-05-10T06:52:58;18.10;99.00
5164;DHT22;2601;50.224;10.126;2023-05-10T06:55:24;18.10;99.20
5164;DHT22;2601;50.224;10.126;2023-05-10T06:57:50;18.10;99.40
5164;DHT22;2601;50.224;10.126;2023-05-10T07:00:17;18.10;99.10
5164;DHT22;2601;50.224;10.126;2023-05-10T07:02:43;18.10;99.10
5164;DHT22;2601;50.224;10.126;2023-05-10T07:05:09;18.10;99.00
5164;DHT22;2601;50.224;10.126;2023-05-10T07:07:34;18.10;98.80
5164;DHT22;2601;50.224;10.126;2023-05-10T07:10:00;18.10;99.10
5164;DHT22;2601;50.224;10.126;2023-05-10T07:12:26;18.10;99.00
5164;DHT22;2601;50.224;10.126;2023-05-10T07:14:51;18.10;99.00
5164;DHT22;2601;50.224;10.126;2023-05-10T07:17:17;18.10;99.10
5164;DHT22;2601;50.224;10.126;2023-05-10T07:19:43;18.10;98.90
5164;DHT22;2601;50.224;10.126;2023-05-10T07:22:09;18.10;99.10
5164;DHT22;2601;50.224;10.126;2023-05-10T07:24:35;18.10;99.00
5164;DHT22;2601;50.224;10.126;2023-05-10T07:27:01;18.10;99.10
5164;DHT22;2601;50.224;10.126;2023-05-10T07:29:27;18.10;99.20
5164;DHT22;2601;50.224;10.126;2023-05-10T07:31:53;18.10;99.00
5164;DHT22;2601;50.224;10.126;2023-05-10T07:34:19;18.10;99.00
5164;DHT22;2601;50.224;10.126;2023-05-10T07:36:45;18.10;99.10
5164;DHT22;2601;50.224;10.126;2023-05-10T07:39:10;18.10;99.30
5164;DHT22;2601;50.224;10.126;2023-05-10T07:41:36;18.10;99.30
5164;DHT22;2601;50.224;10.126;2023-05-10T07:44:03;18.10;99.20
5164;DHT22;2601;50.224;10.126;2023-05-10T07:46:29;18.10;99.20
5164;DHT22;2601;50.224;10.126;2023-05-10T07:48:54;18.10;99.40
5164;DHT22;2601;50.224;10.126;2023-05-10T07:51:20;18.10;99.30
5164;DHT22;2601;50.224;10.126;2023-05-10T07:53:46;18.10;99.30
5164;DHT22;2601;50.224;10.126;2023-05-10T07:58:46;18.10;99.00
5164;DHT22;2601;50.224;10.126;2023-05-10T08:01:12;18.10;99.40
5164;DHT22;2601;50.224;10.126;2023-05-10T08:03:38;18.10;99.30
5164;DHT22;2601;50.224;10.126;2023-05-10T08:06:03;18.10;99.10
5164;DHT22;2601;50.224;10.126;2023-05-10T08:08:29;18.10;99.10
5164;DHT22;2601;50.224;10.126;2023-05-10T08:10:55;18.10;99.30
5164;DHT22;2601;50.224;10.126;2023-05-10T08:13:21;18.10;99.40
5164;DHT22;2601;50.224;10.126;2023-05-10T08:15:46;18.10;99.40
5164;DHT22;2601;50.224;10.126;2023-05-10T08:18:12;18.10;99.60
5164;DHT22;2601;50.224;10.126;2023-05-10T08:20:38;18.10;99.50
5164;DHT22;2601;50.224;10.126;2023-05-10T08:23:03;18.10;99.60
5164;DHT22;2601;50.224;10.126;2023-05-10T08:25:29;18.10;99.50
5164;DHT22;2601;50.224;10.126;2023-05-10T08:27:55;18.10;99.60
5164;DHT22;2601;50.224;10.126;2023-05-10T08:30:20;18.10;99.60
5164;DHT22;2601;50.224;10.126;2023-05-10T08:32:46;18.10;99.60
5164;DHT22;2601;50.224;10.126;2023-05-10T08:35:12;18.10;99.70
5164;DHT22;2601;50.224;10.126;2023-05-10T08:37:37;18.10;99.70
5164;DHT22;2601;50.224;10.126;2023-05-10T08:40:03;18.10;99.80
5164;DHT22;2601;50.224;10.126;2023-05-10T08:42:30;18.10;99.80
5164;DHT22;2601;50.224;10.126;2023-05-10T08:45:00;18.10;99.80
5164;DHT22;2601;50.224;10.126;2023-05-10T08:47:27;18.10;99.90
5164;DHT22;2601;50.224;10.126;2023-05-10T08:49:54;18.10;99.90
5164;DHT22;2601;50.224;10.126;2023-05-10T08:52:20;18.10;99.90
5164;DHT22;2601;50.224;10.126;2023-05-10T08:54:47;18.10;99.90
5164;DHT22;2601;50.224;10.126;2023-05-10T08:57:13;18.10;99.90
5164;DHT22;2601;50.224;10.126;2023-05-10T08:59:38;18.10;99.80
5164;DHT22;2601;50.224;10.126;2023-05-10T09:02:05;18.10;99.40
5164;DHT22;2601;50.224;10.126;2023-05-10T09:04:31;18.20;99.90
5164;DHT22;2601;50.224;10.126;2023-05-10T09:06:57;18.20;99.90
5164;DHT22;2601;50.224;10.126;2023-05-10T09:09:24;18.20;99.70
5164;DHT22;2601;50.224;10.126;2023-05-10T09:11:51;18.20;99.70
5164;DHT22;2601;50.224;10.126;2023-05-10T09:14:18;18.20;99.60
5164;DHT22;2601;50.224;10.126;2023-05-10T09:16:45;18.20;99.80
5164;DHT22;2601;50.224;10.126;2023-05-10T09:19:10;18.20;99.90
5164;DHT22;2601;50.224;10.126;2023-05-10T09:21:36;18.20;99.90
5164;DHT22;2601;50.224;10.126;2023-05-10T09:24:06;18.20;99.90
5164;DHT22;2601;50.224;10.126;2023-05-10T09:26:32;18.20;99.80
5164;DHT22;2601;50.224;10.126;2023-05-10T09:28:59;18.20;99.30
5164;DHT22;2601;50.224;10.126;2023-05-10T09:31:43;18.20;99.60
5164;DHT22;2601;50.224;10.126;2023-05-10T09:34:15;18.20;99.40
5164;DHT22;2601;50.224;10.126;2023-05-10T09:36:59;18.20;99.70
5164;DHT22;2601;50.224;10.126;2023-05-10T09:39:33;18.20;99.30
5164;DHT22;2601;50.224;10.126;2023-05-10T09:42:04;18.20;99.50
5164;DHT22;2601;50.224;10.126;2023-05-10T09:44:31;18.30;99.30
5164;DHT22;2601;50.224;10.126;2023-05-10T09:46:57;18.30;99.40
5164;DHT22;2601;50.224;10.126;2023-05-10T09:49:23;18.30;99.90
5164;DHT22;2601;50.224;10.126;2023-05-10T09:52:06;18.20;99.80
5164;DHT22;2601;50.224;10.126;2023-05-10T09:54:32;18.30;99.50
5164;DHT22;2601;50.224;10.126;2023-05-10T09:56:58;18.30;99.80
5164;DHT22;2601;50.224;10.126;2023-05-10T09:59:28;18.30;99.70
5164;DHT22;2601;50.224;10.126;2023-05-10T10:01:58;18.30;99.70
5164;DHT22;2601;50.224;10.126;2023-05-10T10:04:26;18.30;99.40
5164;DHT22;2601;50.224;10.126;2023-05-10T10:07:02;18.30;99.30
5164;DHT22;2601;50.224;10.126;2023-05-10T10:09:29;18.30;99.70
5164;DHT22;2601;50.224;10.126;2023-05-10T10:11:54;18.30;99.40
5164;DHT22;2601;50.224;10.126;2023-05-10T10:14:22;18.30;99.50
5164;DHT22;2601;50.224;10.126;2023-05-10T10:16:49;18.30;99.40
5164;DHT22;2601;50.224;10.126;2023-05-10T10:19:18;18.30;99.50
5164;DHT22;2601;50.224;10.126;2023-05-10T10:21:43;18.30;99.20
5164;DHT22;2601;50.224;10.126;2023-05-10T10:24:09;18.30;99.20
5164;DHT22;2601;50.224;10.126;2023-05-10T10:26:36;18.30;99.60
5164;DHT22;2601;50.224;10.126;2023-05-10T10:31:57;18.30;99.80
5164;DHT22;2601;50.224;10.126;2023-05-10T10:34:28;18.30;99.90
5164;DHT22;2601;50.224;10.126;2023-05-10T10:36:55;18.30;99.90
5164;DHT22;2601;50.224;10.126;2023-05-10T10:39:22;18.30;99.90
5164;DHT22;2601;50.224;10.126;2023-05-10T10:41:54;18.30;99.90
5164;DHT22;2601;50.224;10.126;2023-05-10T10:44:25;18.30;99.90
5164;DHT22;2601;50.224;10.126;2023-05-10T10:49:48;18.30;99.90
5164;DHT22;2601;50.224;10.126;2023-05-10T10:52:20;18.30;99.90
5164;DHT22;2601;50.224;10.126;2023-05-10T10:54:51;18.30;99.90
5164;DHT22;2601;50.224;10.126;2023-05-10T10:57:18;18.30;99.90
5164;DHT22;2601;50.224;10.126;2023-05-10T10:59:44;18.30;99.90
5164;DHT22;2601;50.224;10.126;2023-05-10T11:02:34;18.30;99.90
5164;DHT22;2601;50.224;10.126;2023-05-10T11:05:21;18.30;99.90
5164;DHT22;2601;50.224;10.126;2023-05-10T11:07:54;18.30;99.90
5164;DHT22;2601;50.224;10.126;2023-05-10T11:10:24;18.30;99.90
5164;DHT22;2601;50.224;10.126;2023-05-10T11:15:30;18.30;99.90
5164;DHT22;2601;50.224;10.126;2023-05-10T11:17:56;18.30;99.90
5164;DHT22;2601;50.224;10.126;2023-05-10T11:20:22;18.30;99.90
5164;DHT22;2601;50.224;10.126;2023-05-10T11:22:54;18.30;99.90
5164;DHT22;2601;50.224;10.126;2023-05-10T11:25:26;18.30;99.90
5164;DHT22;2601;50.224;10.126;2023-05-10T11:27:51;18.30;99.90
5164;DHT22;2601;50.224;10.126;2023-05-10T11:30:17;18.30;99.90
5164;DHT22;2601;50.224;10.126;2023-05-10T11:32:43;18.30;99.90
5164;DHT22;2601;50.224;10.126;2023-05-10T11:35:10;18.30;99.90
5164;DHT22;2601;50.224;10.126;2023-05-10T11:37:38;18.30;99.90
5164;DHT22;2601;50.224;10.126;2023-05-10T11:40:08;18.30;99.90
5164;DHT22;2601;50.224;10.126;2023-05-10T11:42:39;18.30;99.90
5164;DHT22;2601;50.224;10.126;2023-05-10T11:45:05;18.30;99.90
5164;DHT22;2601;50.224;10.126;2023-05-10T11:47:31;18.30;99.90
5164;DHT22;2601;50.224;10.126;2023-05-10T11:49:57;18.30;99.90
5164;DHT22;2601;50.224;10.126;2023-05-10T11:52:23;18.30;99.90
5164;DHT22;2601;50.224;10.126;2023-05-10T11:54:55;18.30;99.90
5164;DHT22;2601;50.224;10.126;2023-05-10T11:57:26;18.30;99.90
5164;DHT22;2601;50.224;10.126;2023-05-10T11:59:56;18.30;99.90
5164;DHT22;2601;50.224;10.126;2023-05-10T12:02:23;18.30;99.90
5164;DHT22;2601;50.224;10.126;2023-05-10T12:04:49;18.30;99.90
5164;DHT22;2601;50.224;10.126;2023-05-10T12:07:16;18.20;99.80
5164;DHT22;2601;50.224;10.126;2023-05-10T12:09:44;18.30;99.90
5164;DHT22;2601;50.224;10.126;2023-05-10T12:12:27;18.30;99.90
5164;DHT22;2601;50.224;10.126;2023-05-10T12:14:52;18.30;99.80
5164;DHT22;2601;50.224;10.126;2023-05-10T12:17:18;18.30;99.90
5164;DHT22;2601;50.224;10.126;2023-05-10T12:19:43;18.20;99.80
5164;DHT22;2601;50.224;10.126;2023-05-10T12:22:09;18.30;99.80
5164;DHT22;2601;50.224;10.126;2023-05-10T12:24:36;18.30;99.80
5164;DHT22;2601;50.224;10.126;2023-05-10T12:27:07;18.30;99.70
5164;DHT22;2601;50.224;10.126;2023-05-10T12:29:33;18.30;99.70
5164;DHT22;2601;50.224;10.126;2023-05-10T12:31:59;18.30;99.70
5164;DHT22;2601;50.224;10.126;2023-05-10T12:34:33;18.30;99.70
5164;DHT22;2601;50.224;10.126;2023-05-10T12:37:00;18.30;99.70
5164;DHT22;2601;50.224;10.126;2023-05-10T12:39:41;18.30;99.60
5164;DHT22;2601;50.224;10.126;2023-05-10T12:42:06;18.30;99.60
5164;DHT22;2601;50.224;10.126;2023-05-10T12:44:32;18.30;99.60
5164;DHT22;2601;50.224;10.126;2023-05-10T12:46:58;18.30;99.60
5164;DHT22;2601;50.224;10.126;2023-05-10T12:49:23;18.30;99.60
5164;DHT22;2601;50.224;10.126;2023-05-10T12:51:49;18.30;99.50
5164;DHT22;2601;50.224;10.126;2023-05-10T12:54:14;18.30;99.60
5164;DHT22;2601;50.224;10.126;2023-05-10T12:56:41;18.30;99.70
5164;DHT22;2601;50.224;10.126;2023-05-10T12:59:08;18.30;99.60
5164;DHT22;2601;50.224;10.126;2023-05-10T13:01:33;18.30;99.60
5164;DHT22;2601;50.224;10.126;2023-05-10T13:03:59;18.30;99.50
5164;DHT22;2601;50.224;10.126;2023-05-10T13:06:25;18.30;99.60
5164;DHT22;2601;50.224;10.126;2023-05-10T13:08:51;18.20;99.40
5164;DHT22;2601;50.224;10.126;2023-05-10T13:11:17;18.30;99.50
5164;DHT22;2601;50.224;10.126;2023-05-10T13:13:44;18.30;99.50
5164;DHT22;2601;50.224;10.126;2023-05-10T13:16:10;18.30;99.50
5164;DHT22;2601;50.224;10.126;2023-05-10T13:18:36;18.30;99.50
5164;DHT22;2601;50.224;10.126;2023-05-10T13:21:01;18.30;99.40
5164;DHT22;2601;50.224;10.126;2023-05-10T13:23:29;18.30;99.40
5164;DHT22;2601;50.224;10.126;2023-05-10T13:25:54;18.30;99.30
5164;DHT22;2601;50.224;10.126;2023-05-10T13:28:20;18.30;99.20
5164;DHT22;2601;50.224;10.126;2023-05-10T13:30:45;18.30;99.30
5164;DHT22;2601;50.224;10.126;2023-05-10T13:33:11;18.30;99.50
5164;DHT22;2601;50.224;10.126;2023-05-10T13:35:37;18.30;99.50
5164;DHT22;2601;50.224;10.126;2023-05-10T13:38:02;18.30;99.90
5164;DHT22;2601;50.224;10.126;2023-05-10T13:40:28;18.30;99.90
5164;DHT22;2601;50.224;10.126;2023-05-10T13:42:53;18.30;99.90
5164;DHT22;2601;50.224;10.126;2023-05-10T13:45:19;18.30;99.90
5164;DHT22;2601;50.224;10.126;2023-05-10T13:47:44;18.30;99.90
5164;DHT22;2601;50.224;10.126;2023-05-10T13:50:10;18.30;99.90
5164;DHT22;2601;50.224;10.126;2023-05-10T13:52:36;18.20;99.90
5164;DHT22;2601;50.224;10.126;2023-05-10T13:55:01;18.20;99.90
5164;DHT22;2601;50.224;10.126;2023-05-10T13:57:28;18.20;99.90
5164;DHT22;2601;50.224;10.126;2023-05-10T13:59:54;18.20;99.90
5164;DHT22;2601;50.224;10.126;2023-05-10T14:02:19;18.20;99.90
5164;DHT22;2601;50.224;10.126;2023-05-10T14:04:45;18.20;99.90
5164;DHT22;2601;50.224;10.126;2023-05-10T14:07:11;18.20;99.90
5164;DHT22;2601;50.224;10.126;2023-05-10T14:09:36;18.20;99.90
5164;DHT22;2601;50.224;10.126;2023-05-10T14:12:02;18.20;99.90
5164;DHT22;2601;50.224;10.126;2023-05-10T14:14:28;18.20;99.90
5164;DHT22;2601;50.224;10.126;2023-05-10T14:16:54;18.20;99.90
5164;DHT22;2601;50.224;10.126;2023-05-10T14:19:20;18.20;99.90
5164;DHT22;2601;50.224;10.126;2023-05-10T14:21:45;18.20;99.90
5164;DHT22;2601;50.224;10.126;2023-05-10T14:24:11;18.20;99.90
5164;DHT22;2601;50.224;10.126;2023-05-10T14:26:37;18.20;99.90
5164;DHT22;2601;50.224;10.126;2023-05-10T14:29:02;18.20;99.90
5164;DHT22;2601;50.224;10.126;2023-05-10T14:31:28;18.20;99.90
5164;DHT22;2601;50.224;10.126;2023-05-10T14:33:55;18.20;99.90
5164;DHT22;2601;50.224;10.126;2023-05-10T14:36:21;18.20;99.90
5164;DHT22;2601;50.224;10.126;2023-05-10T14:38:46;18.20;99.90
5164;DHT22;2601;50.224;10.126;2023-05-10T14:41:12;18.20;99.90
5164;DHT22;2601;50.224;10.126;2023-05-10T14:43:42;18.20;99.90
5164;DHT22;2601;50.224;10.126;2023-05-10T14:46:08;18.20;99.90
5164;DHT22;2601;50.224;10.126;2023-05-10T14:48:34;18.20;99.90
5164;DHT22;2601;50.224;10.126;2023-05-10T14:51:00;18.20;99.90
5164;DHT22;2601;50.224;10.126;2023-05-10T14:53:25;18.20;99.90
5164;DHT22;2601;50.224;10.126;2023-05-10T14:55:51;18.20;99.90
5164;DHT22;2601;50.224;10.126;2023-05-10T14:58:17;18.20;99.90
5164;DHT22;2601;50.224;10.126;2023-05-10T15:00:43;18.20;99.90
5164;DHT22;2601;50.224;10.126;2023-05-10T15:03:09;18.20;99.90
5164;DHT22;2601;50.224;10.126;2023-05-10T15:05:34;18.20;99.90
5164;DHT22;2601;50.224;10.126;2023-05-10T15:08:02;18.20;99.90
5164;DHT22;2601;50.224;10.126;2023-05-10T15:10:28;18.20;99.90
5164;DHT22;2601;50.224;10.126;2023-05-10T15:12:53;18.20;99.90
5164;DHT22;2601;50.224;10.126;2023-05-10T15:15:19;18.20;99.90
5164;DHT22;2601;50.224;10.126;2023-05-10T15:17:45;18.20;99.90
5164;DHT22;2601;50.224;10.126;2023-05-10T15:20:11;18.20;99.90
5164;DHT22;2601;50.224;10.126;2023-05-10T15:22:37;18.20;99.90
5164;DHT22;2601;50.224;10.126;2023-05-10T15:25:03;18.20;99.90
5164;DHT22;2601;50.224;10.126;2023-05-10T15:27:29;18.20;99.90
5164;DHT22;2601;50.224;10.126;2023-05-10T15:29:55;18.20;99.90
5164;DHT22;2601;50.224;10.126;2023-05-10T15:32:21;18.20;99.90
5164;DHT22;2601;50.224;10.126;2023-05-10T15:34:46;18.20;99.90
5164;DHT22;2601;50.224;10.126;2023-05-10T15:37:12;18.20;99.90
5164;DHT22;2601;50.224;10.126;2023-05-10T15:39:38;18.20;99.90
5164;DHT22;2601;50.224;10.126;2023-05-10T15:42:04;18.20;99.90
5164;DHT22;2601;50.224;10.126;2023-05-10T15:44:29;18.20;99.90
5164;DHT22;2601;50.224;10.126;2023-05-10T15:46:55;18.20;99.90
5164;DHT22;2601;50.224;10.126;2023-05-10T15:49:22;18.20;99.90
5164;DHT22;2601;50.224;10.126;2023-05-10T15:51:47;18.20;99.90
5164;DHT22;2601;50.224;10.126;2023-05-10T15:54:13;18.20;99.90
5164;DHT22;2601;50.224;10.126;2023-05-10T15:56:39;18.20;99.90
5164;DHT22;2601;50.224;10.126;2023-05-10T15:59:05;18.20;99.90
5164;DHT22;2601;50.224;10.126;2023-05-10T16:01:33;18.20;99.90
5164;DHT22;2601;50.224;10.126;2023-05-10T16:03:59;18.20;99.90
5164;DHT22;2601;50.224;10.126;2023-05-10T16:06:24;18.20;99.90